Bunker Hill Village, Texas
Current Conditions -  °F | °C
As of 2:35 AM on Friday 31 Oct 2014 (Local Time) from KMCJ Reporting Station
Clear Clear  
Wind Chill: 66°   Ceiling: Unl
Heat Index: 66°   Visibility: 10mi
Dew Point: 54°   Wind: 0mph
Humidity: 64%   Direction: NA
Pressure: 30.08"   Gusts: NA
Location:  29.7698°N, 95.5164°W
Report Text: KMCJ 310735Z AUTO 00000KT 10SM CLR 19/12 A3008 RMK AO1
Loading
Personal Weather Stations






























Interactive Weather Map
Tropical Storm Tracking
New forecast layout! Learn more

10-Day Weather Forecast

Advertisements
Track Severe Weather on mobile